»·PEaware :: BREW17 KPDX-KSEA

BREW17 :: KPDX-KSEA

FLIGHT INFORMATION

Flight Status: Arrived
Operator: Unknown
More flights by this operator :: More flights under this callsign
Pilot: Michael B. (21837)
Aircraft: BEECH AIRCRAFT T-6A TEXAN
(TEX2)
More flights by this aircraft type
Origin: KPDX Portland Intl
United States
Destination: KSEA Seattle-Tacoma Intl
United States
More flights between these airports :: More routes between these airports
Route: +PLTD1 BTG OLM2
File this flight plan on PilotEdge
Remarks:
Altitude:
(Current/Filed)
15,000ft
Speed:
(Current/Filed)
270kts
Departed: 17-Jun-20 07:51 AM
Arrived: 17-Jun-20 08:27 AM
Distance/Time
Traveled:
112nm/0:36
Distance/Time
To Go:
Arrived

Flight Plot

Page will automatically refresh every two minutes.


Map Options




Map Legend


Flown Route
Filed Route
Departure Airport
Arrival Airport
Navaid (VOR, NDB)
Fix

Horizontal Profiles

Position Reports

Time Latitude Longitude Heading Altitude Ground
Speed
17-Jun-20 07:25 45.587613 -122.584011 209 21ft 0kts
17-Jun-20 07:26 45.587613 -122.584011 209 21ft 0kts
17-Jun-20 07:27 45.587613 -122.584011 209 21ft 0kts
17-Jun-20 07:28 45.587613 -122.584011 209 21ft 0kts
17-Jun-20 07:29 45.587613 -122.584011 209 21ft 0kts
17-Jun-20 07:30 45.587613 -122.584011 209 21ft 0kts
17-Jun-20 07:31 45.587613 -122.584011 209 21ft 0kts
17-Jun-20 07:32 45.587613 -122.584011 209 21ft 0kts
17-Jun-20 07:33 45.587613 -122.584011 209 21ft 0kts
17-Jun-20 07:34 45.587613 -122.584011 209 21ft 0kts
17-Jun-20 07:35 45.587613 -122.584011 209 21ft 0kts
17-Jun-20 07:36 45.587613 -122.584011 209 21ft 0kts
17-Jun-20 07:37 45.587613 -122.584011 209 21ft 0kts
17-Jun-20 07:38 45.587613 -122.584011 209 21ft 0kts
17-Jun-20 07:39 45.587613 -122.584011 209 21ft 0kts
17-Jun-20 07:40 45.587613 -122.584011 209 21ft 0kts
17-Jun-20 07:41 45.587572 -122.584172 286 21ft 2kts
17-Jun-20 07:42 45.588696 -122.585386 299 21ft 9kts
17-Jun-20 07:43 45.590170 -122.586992 297 21ft 9kts
17-Jun-20 07:44 45.591836 -122.591236 297 21ft 14kts
17-Jun-20 07:45 45.593733 -122.596138 297 24ft 13kts
17-Jun-20 07:46 45.594411 -122.597579 40 24ft 0kts
17-Jun-20 07:47 45.594411 -122.597579 40 24ft 0kts
17-Jun-20 07:48 45.594452 -122.597529 40 24ft 2kts
17-Jun-20 07:49 45.594522 -122.594966 119 24ft 9kts
17-Jun-20 07:50 45.588974 -122.578565 116 356ft 139kts
17-Jun-20 07:51 45.612230 -122.546811 341 3436ft 188kts
17-Jun-20 07:52 45.661232 -122.563453 343 7076ft 191kts
17-Jun-20 07:53 45.712549 -122.584873 345 10672ft 200kts
17-Jun-20 07:54 45.767748 -122.601021 351 14263ft 211kts
17-Jun-20 07:55 45.835461 -122.612635 351 15662ft 265kts
17-Jun-20 07:56 45.909194 -122.640095 354 16959ft 261kts
17-Jun-20 07:57 45.974297 -122.648896 352 20115ft 243kts
17-Jun-20 07:58 46.049290 -122.666016 348 20058ft 290kts
17-Jun-20 07:59 46.129378 -122.688567 350 19814ft 293kts
17-Jun-20 08:00 46.208033 -122.706642 350 20017ft 289kts
17-Jun-20 08:01 46.287775 -122.725788 351 18714ft 292kts
17-Jun-20 08:02 46.368769 -122.744932 349 15464ft 305kts
17-Jun-20 08:03 46.451505 -122.767710 351 12315ft 298kts
17-Jun-20 08:04 46.527631 -122.788039 346 11712ft 262kts
17-Jun-20 08:05 46.598463 -122.807319 351 11678ft 257kts
17-Jun-20 08:06 46.668522 -122.823448 351 11700ft 256kts
17-Jun-20 08:07 46.739252 -122.839863 349 11595ft 257kts
17-Jun-20 08:08 46.809051 -122.858763 351 11652ft 254kts
17-Jun-20 08:09 46.878655 -122.874847 345 11736ft 255kts
17-Jun-20 08:10 46.948212 -122.899483 348 11714ft 256kts
17-Jun-20 08:11 47.011760 -122.877969 53 11676ft 261kts
17-Jun-20 08:12 47.057068 -122.793415 47 10689ft 269kts
17-Jun-20 08:13 47.110967 -122.720847 40 10728ft 256kts
17-Jun-20 08:14 47.163934 -122.650032 43 10365ft 259kts
17-Jun-20 08:15 47.220099 -122.585898 35 7482ft 261kts
17-Jun-20 08:16 47.276699 -122.520011 36 6676ft 252kts
17-Jun-20 08:18 47.331263 -122.452880 38 6673ft 255kts
17-Jun-20 08:19 47.385399 -122.386697 23 6467ft 250kts
17-Jun-20 08:20 47.453000 -122.398983 347 6453ft 250kts
17-Jun-20 08:21 47.521558 -122.419753 346 3159ft 254kts
17-Jun-20 08:22 47.586788 -122.433753 7 2743ft 230kts
17-Jun-20 08:23 47.600985 -122.358015 118 2636ft 198kts
17-Jun-20 08:24 47.552727 -122.336279 158 1559ft 191kts
17-Jun-20 08:25 47.505844 -122.311460 176 966ft 147kts
17-Jun-20 08:26 47.473353 -122.310795 181 570ft 113kts
17-Jun-20 08:27 47.455242 -122.311155 206 429ft 13kts
17-Jun-20 08:28 47.454033 -122.313486 180 409ft 9kts
17-Jun-20 08:29 47.450923 -122.313520 179 411ft 14kts
17-Jun-20 08:30 47.446289 -122.313558 180 386ft 19kts
17-Jun-20 08:31 47.440763 -122.313604 179 365ft 11kts

Navigation Log

Ident Type
Flight plan parsing failed, navigation log unavailable